Time;durP1;ratioP1;P1;durP2;ratioP2;P2;SDS_P1;SDS_P2;PMS_P1;PMS_P2;Temp;Humidity;BMP_temperature;BMP_pressure;BME280_temperature;BME280_humidity;BME280_pressure;Samples;Min_cycle;Max_cycle;Signal;HPM_P1;HPM_P2
2021/04/29 00:00:00;;;;;;;10.48;4.68;;;;;;;10.90;100.00;94766.69;1035625;28;20132;-61
2021/04/29 00:00:30;;;;;;;6.43;4.97;;;;;;;10.90;100.00;94772.00;1027584;28;20398;-61
2021/04/29 00:01:01;;;;;;;6.28;4.28;;;;;;;10.92;100.00;94770.78;1035660;28;20013;-61
2021/04/29 00:01:32;;;;;;;7.13;4.85;;;;;;;10.89;100.00;94770.38;1027685;28;20030;-61
2021/04/29 00:02:03;;;;;;;7.68;4.90;;;;;;;10.85;100.00;94763.84;1039748;28;20021;-62
2021/04/29 00:02:33;;;;;;;9.27;5.28;;;;;;;10.88;100.00;94777.53;1035718;28;20020;-61
2021/04/29 00:03:04;;;;;;;10.32;5.05;;;;;;;10.77;100.00;94751.59;1027500;28;20029;-61
2021/04/29 00:03:35;;;;;;;6.22;4.60;;;;;;;10.84;100.00;94768.34;1027476;28;20285;-61
2021/04/29 00:04:06;;;;;;;6.75;4.93;;;;;;;10.84;100.00;94778.97;1031546;28;20578;-61
2021/04/29 00:04:37;;;;;;;6.20;4.53;;;;;;;10.85;100.00;94774.47;1035614;28;20022;-61
2021/04/29 00:05:10;;;;;;;6.65;4.72;;;;;;;10.87;100.00;94765.28;1031497;28;20023;-63
2021/04/29 00:05:41;;;;;;;9.45;4.97;;;;;;;10.88;100.00;94769.56;1031665;28;20023;-61
2021/04/29 00:06:12;;;;;;;7.72;4.57;;;;;;;10.88;100.00;94769.56;1031629;28;20081;-61
2021/04/29 00:06:43;;;;;;;7.43;5.10;;;;;;;10.90;100.00;94772.00;1039784;28;20024;-61
2021/04/29 00:07:14;;;;;;;6.78;4.35;;;;;;;10.89;100.00;94775.69;1035567;28;20092;-61
2021/04/29 00:07:45;;;;;;;8.40;5.00;;;;;;;10.87;100.00;94775.91;1035619;28;20041;-61
2021/04/29 00:08:15;;;;;;;7.57;4.57;;;;;;;10.85;100.00;94774.47;1027548;28;20019;-61
2021/04/29 00:08:46;;;;;;;6.05;5.13;;;;;;;10.86;100.00;94770.78;1031638;28;20026;-60
2021/04/29 00:09:17;;;;;;;8.43;4.90;;;;;;;10.90;100.00;94772.00;1027448;28;20081;-62
2021/04/29 00:09:48;;;;;;;7.25;4.97;;;;;;;10.89;100.00;94765.88;1035655;28;20033;-61
2021/04/29 00:10:21;;;;;;;9.40;4.60;;;;;;;10.88;100.00;94763.44;1031530;28;20459;-62
2021/04/29 00:10:52;;;;;;;8.60;4.85;;;;;;;10.87;100.00;94764.47;1031668;28;20046;-59
2021/04/29 00:11:23;;;;;;;10.68;5.22;;;;;;;10.88;100.00;94760.78;1031484;28;20097;-61
2021/04/29 00:11:53;;;;;;;7.28;4.95;;;;;;;10.87;100.00;94761.81;1035612;28;20105;-61
2021/04/29 00:12:24;;;;;;;8.32;4.45;;;;;;;10.85;100.00;94770.00;1035587;28;20032;-60
2021/04/29 00:12:55;;;;;;;7.00;4.40;;;;;;;10.81;100.00;94758.13;1035632;28;20071;-62
2021/04/29 00:13:26;;;;;;;5.85;4.43;;;;;;;10.85;100.00;94762.03;1035340;28;20423;-61
2021/04/29 00:13:57;;;;;;;7.68;4.20;;;;;;;10.84;100.00;94760.38;1031500;28;20018;-62
2021/04/29 00:14:27;;;;;;;7.95;4.38;;;;;;;10.84;100.00;94763.03;1036226;28;20029;-61
2021/04/29 00:14:58;;;;;;;6.18;4.85;;;;;;;10.85;100.00;94764.69;1031564;28;20028;-61
2021/04/29 00:15:29;;;;;;;8.45;4.80;;;;;;;10.84;100.00;94768.34;1031319;28;20019;-61
2021/04/29 00:16:00;;;;;;;7.68;3.92;;;;;;;10.86;100.00;94763.63;1031581;28;20046;-61
2021/04/29 00:16:31;;;;;;;7.82;4.53;;;;;;;10.83;100.00;94766.69;1035594;28;20022;-61
2021/04/29 00:17:02;;;;;;;6.43;4.40;;;;;;;10.83;100.00;94771.19;1035608;28;20518;-61
2021/04/29 00:17:33;;;;;;;6.97;4.35;;;;;;;10.81;100.00;94763.44;1027431;28;20531;-61
2021/04/29 00:18:04;;;;;;;5.93;4.45;;;;;;;10.84;100.00;94763.03;1035579;28;20080;-60
2021/04/29 00:18:34;;;;;;;6.95;5.05;;;;;;;10.79;100.00;94754.06;1039673;28;20029;-61
2021/04/29 00:19:06;;;;;;;5.15;4.25;;;;;;;10.84;100.00;94763.03;1027551;28;20015;-61
2021/04/29 00:19:37;;;;;;;6.10;4.43;;;;;;;10.84;100.00;94763.03;1027370;28;20023;-61
2021/04/29 00:20:10;;;;;;;6.00;4.50;;;;;;;10.86;100.00;94766.28;1033531;28;20389;-62
2021/04/29 00:20:41;;;;;;;6.07;4.10;;;;;;;10.87;100.00;94756.50;1027573;28;20019;-61
2021/04/29 00:21:12;;;;;;;6.25;4.32;;;;;;;10.87;100.00;94767.13;1027582;28;20105;-61
2021/04/29 00:21:43;;;;;;;8.27;4.43;;;;;;;10.86;100.00;94760.19;1031415;28;20022;-62
2021/04/29 00:22:14;;;;;;;5.60;4.50;;;;;;;10.86;100.00;94760.19;1031581;28;20109;-62
2021/04/29 00:22:45;;;;;;;6.72;4.22;;;;;;;10.85;100.00;94759.38;1031499;28;20030;-61
2021/04/29 00:23:16;;;;;;;9.40;4.75;;;;;;;10.87;100.00;94756.50;1031544;28;20369;-61
2021/04/29 00:23:47;;;;;;;9.18;4.85;;;;;;;10.87;100.00;94757.31;1035129;28;20048;-62
2021/04/29 00:24:17;;;;;;;10.23;4.50;;;;;;;10.86;100.00;94754.88;1027547;28;20019;-60
2021/04/29 00:24:48;;;;;;;13.32;4.80;;;;;;;10.85;100.00;94751.41;1035525;28;20395;-62
2021/04/29 00:25:19;;;;;;;5.03;4.10;;;;;;;10.87;100.00;94753.84;1027537;28;20022;-61
2021/04/29 00:25:50;;;;;;;7.25;4.22;;;;;;;10.86;100.00;94749.56;1035496;28;20022;-60
2021/04/29 00:26:21;;;;;;;7.20;4.40;;;;;;;10.85;100.00;94754.06;1027448;28;20118;-62
2021/04/29 00:26:51;;;;;;;6.30;4.57;;;;;;;10.86;100.00;94753.00;1035577;28;20050;-59
2021/04/29 00:27:22;;;;;;;6.10;4.20;;;;;;;10.86;100.00;94753.00;1031528;28;20388;-61
2021/04/29 00:27:53;;;;;;;6.57;4.80;;;;;;;10.86;100.00;94750.34;1039538;28;20025;-61
2021/04/29 00:28:24;;;;;;;6.43;4.10;;;;;;;10.79;100.00;94744.25;1031550;28;20491;-61
2021/04/29 00:28:54;;;;;;;6.10;4.38;;;;;;;10.87;100.00;94751.19;1039696;28;20579;-60
2021/04/29 00:29:25;;;;;;;6.97;4.85;;;;;;;10.86;100.00;94749.56;1039711;28;20413;-62
2021/04/29 00:29:56;;;;;;;7.47;5.20;;;;;;;10.85;100.00;94747.91;1039517;28;20025;-61
2021/04/29 00:30:27;;;;;;;6.47;4.13;;;;;;;10.85;100.00;94754.06;1035603;28;20109;-62
2021/04/29 00:30:58;;;;;;;6.93;4.40;;;;;;;10.79;100.00;94738.13;1031554;28;20022;-61
2021/04/29 00:31:30;;;;;;;7.25;5.03;;;;;;;10.84;100.00;94752.41;1031564;28;20496;-60
2021/04/29 00:32:01;;;;;;;8.65;4.90;;;;;;;10.85;100.00;94747.91;1027460;28;20393;-60
2021/04/29 00:32:32;;;;;;;7.35;4.40;;;;;;;10.83;100.00;94748.09;1023497;29;20023;-62
2021/04/29 00:33:02;;;;;;;6.45;4.72;;;;;;;10.82;100.00;94749.16;1031553;28;20023;-61
2021/04/29 00:33:33;;;;;;;7.00;4.88;;;;;;;10.84;100.00;94751.59;1035492;28;20053;-61
2021/04/29 00:34:04;;;;;;;6.72;5.05;;;;;;;10.82;100.00;94749.16;1031374;28;20034;-61
2021/04/29 00:34:35;;;;;;;6.80;4.55;;;;;;;10.81;100.00;94747.50;1031563;28;20022;-62
2021/04/29 00:35:07;;;;;;;6.05;4.10;;;;;;;10.80;100.00;94747.72;1027550;28;20520;-61
2021/04/29 00:35:38;;;;;;;7.30;5.32;;;;;;;10.78;100.00;94758.56;1035634;28;20018;-61
2021/04/29 00:36:09;;;;;;;7.03;4.80;;;;;;;10.78;100.00;94752.41;1035477;28;20025;-62
2021/04/29 00:36:40;;;;;;;6.00;4.30;;;;;;;10.76;100.00;94755.28;1031613;28;20026;-61
2021/04/29 00:37:11;;;;;;;6.40;4.03;;;;;;;10.71;100.00;94750.59;1031555;28;20019;-62
2021/04/29 00:37:42;;;;;;;6.57;4.43;;;;;;;10.74;100.00;94752.00;1031519;28;20018;-61
2021/04/29 00:38:13;;;;;;;9.30;4.57;;;;;;;10.73;100.00;94756.53;1031543;28;20030;-61
2021/04/29 00:38:44;;;;;;;9.32;4.85;;;;;;;10.73;100.00;94759.19;1031663;28;20396;-61
2021/04/29 00:39:15;;;;;;;6.75;4.47;;;;;;;10.74;100.00;94754.66;1031670;28;20026;-62
2021/04/29 00:39:46;;;;;;;7.47;4.60;;;;;;;10.71;100.00;94753.25;1031507;28;20022;-61
2021/04/29 00:40:17;;;;;;;5.10;4.28;;;;;;;10.69;100.00;94754.47;1031489;28;20038;-60
2021/04/29 00:40:48;;;;;;;7.95;4.35;;;;;;;10.69;100.00;94750.00;1027468;28;20476;-61
2021/04/29 00:41:19;;;;;;;8.07;4.93;;;;;;;10.69;100.00;94755.31;1031596;28;20034;-60
2021/04/29 00:41:50;;;;;;;5.50;4.13;;;;;;;10.70;100.00;94754.28;1027497;28;20058;-62
2021/04/29 00:42:21;;;;;;;7.18;5.20;;;;;;;10.69;100.00;94752.66;1023458;28;20023;-61
2021/04/29 00:42:52;;;;;;;5.22;4.25;;;;;;;10.70;100.00;94758.78;1035537;28;20112;-59
2021/04/29 00:43:23;;;;;;;6.88;4.57;;;;;;;10.65;100.00;94748.75;1035574;28;20023;-61
2021/04/29 00:43:54;;;;;;;6.65;4.72;;;;;;;10.69;100.00;94755.31;1039417;28;20025;-62
2021/04/29 00:44:25;;;;;;;7.25;5.15;;;;;;;10.70;100.00;94748.16;1035509;28;20032;-62
2021/04/29 00:44:56;;;;;;;7.90;5.10;;;;;;;10.70;100.00;94756.13;1039611;28;20087;-62
2021/04/29 00:45:26;;;;;;;6.15;5.00;;;;;;;10.71;100.00;94755.91;1031477;28;20404;-61
2021/04/29 00:45:57;;;;;;;6.97;4.57;;;;;;;10.69;100.00;94755.31;1031446;28;20022;-61
2021/04/29 00:46:29;;;;;;;7.93;4.88;;;;;;;10.71;100.00;94763.88;1027379;28;20027;-61
2021/04/29 00:47:00;;;;;;;8.95;4.38;;;;;;;10.71;100.00;94760.38;1031482;28;20018;-60
2021/04/29 00:47:30;;;;;;;12.20;5.20;;;;;;;10.71;100.00;94758.56;1031454;28;20026;-62
2021/04/29 00:48:01;;;;;;;6.28;4.68;;;;;;;10.71;100.00;94761.22;1035584;28;20022;-62
2021/04/29 00:48:32;;;;;;;6.55;4.50;;;;;;;10.72;100.00;94757.53;1031489;28;20619;-61
2021/04/29 00:49:03;;;;;;;8.95;4.82;;;;;;;10.73;100.00;94764.47;1035473;28;20057;-61
2021/04/29 00:49:35;;;;;;;7.97;4.90;;;;;;;10.74;100.00;94758.13;1039548;28;20021;-61
2021/04/29 00:50:07;;;;;;;8.52;5.18;;;;;;;10.74;100.00;94765.28;1031512;28;20018;-61
2021/04/29 00:50:38;;;;;;;7.78;4.90;;;;;;;10.75;100.00;94758.97;1027433;28;20043;-61
2021/04/29 00:51:09;;;;;;;7.82;5.25;;;;;;;10.73;100.00;94761.03;1027501;28;20062;-61
2021/04/29 00:51:40;;;;;;;7.72;5.00;;;;;;;10.72;100.00;94759.38;1031439;28;20019;-61
2021/04/29 00:52:11;;;;;;;7.55;4.25;;;;;;;10.70;100.00;94764.88;1035525;28;20104;-62
2021/04/29 00:52:42;;;;;;;7.65;4.70;;;;;;;10.69;100.00;94762.44;1031392;28;20527;-61
2021/04/29 00:53:12;;;;;;;7.57;4.60;;;;;;;10.70;100.00;94767.53;1031431;28;20046;-61
2021/04/29 00:53:44;;;;;;;6.78;4.43;;;;;;;10.70;100.00;94761.44;1027815;28;20489;-61
2021/04/29 00:54:15;;;;;;;7.85;4.60;;;;;;;10.66;100.00;94761.03;1024209;29;20363;-61
2021/04/29 00:54:45;;;;;;;8.20;5.00;;;;;;;10.67;100.00;94767.16;1032213;28;20075;-61
2021/04/29 00:55:16;;;;;;;8.75;4.82;;;;;;;10.67;100.00;94767.16;1036310;28;20025;-60
2021/04/29 00:55:47;;;;;;;6.70;4.82;;;;;;;10.65;100.00;94767.34;1036153;28;20036;-61
2021/04/29 00:56:18;;;;;;;8.23;5.10;;;;;;;10.66;100.00;94766.34;1032181;28;20432;-61
2021/04/29 00:56:48;;;;;;;7.13;4.97;;;;;;;10.66;100.00;94768.16;1036292;28;20115;-61
2021/04/29 00:57:19;;;;;;;5.97;4.15;;;;;;;10.64;100.00;94770.19;1036275;28;20348;-61
2021/04/29 00:57:50;;;;;;;7.63;4.80;;;;;;;10.63;100.00;94766.75;1032311;28;20100;-60
2021/04/29 00:58:21;;;;;;;5.88;4.57;;;;;;;10.63;100.00;94766.75;1040465;28;20400;-61
2021/04/29 00:58:52;;;;;;;13.52;6.10;;;;;;;10.62;100.00;94764.28;1032145;28;20181;-60
2021/04/29 00:59:23;;;;;;;7.53;4.72;;;;;;;10.61;100.00;94768.78;1036294;28;20030;-63
2021/04/29 00:59:54;;;;;;;7.60;4.90;;;;;;;10.62;100.00;94767.75;1036165;28;20021;-61
2021/04/29 01:00:25;;;;;;;7.45;5.47;;;;;;;10.62;100.00;94770.41;1044596;28;20028;-62
2021/04/29 01:00:56;;;;;;;6.80;5.03;;;;;;;10.63;100.00;94768.59;1036216;28;20419;-61
2021/04/29 01:01:27;;;;;;;9.05;5.55;;;;;;;10.57;100.00;94772.84;1028142;28;20030;-61
2021/04/29 01:02:06;;;;;;;8.07;4.78;;;;;;;10.50;100.00;94761.44;1036242;28;20125;-61
2021/04/29 01:02:39;;;;;;;6.78;4.88;;;;;;;10.57;100.00;94775.50;1036306;28;20033;-61
2021/04/29 01:03:18;;;;;;;10.02;5.30;;;;;;;10.49;100.00;94757.16;1032071;28;20058;-62
2021/04/29 01:04:01;;;;;;;6.80;5.00;;;;;;;10.55;100.00;94772.25;1038942;28;20026;-61
2021/04/29 01:04:45;;;;;;;9.30;5.13;;;;;;;10.55;100.00;94780.22;1036312;28;20113;-62
2021/04/29 01:05:19;;;;;;;6.38;4.50;;;;;;;10.54;100.00;94775.94;1040249;28;20022;-61
2021/04/29 01:05:52;;;;;;;8.65;5.00;;;;;;;10.50;100.00;94769.38;1032263;28;20403;-61
2021/04/29 01:06:28;;;;;;;8.43;5.00;;;;;;;10.51;100.00;94779.00;1032134;28;20030;-62
2021/04/29 01:07:01;;;;;;;5.93;4.30;;;;;;;10.50;100.00;94777.34;1040435;28;20305;-61
2021/04/29 01:07:35;;;;;;;7.68;5.25;;;;;;;10.50;100.00;94774.69;1040181;28;20530;-61
2021/04/29 01:08:12;;;;;;;7.38;4.75;;;;;;;10.51;100.00;94771.03;1032372;28;20074;-62
2021/04/29 01:09:02;;;;;;;7.05;5.10;;;;;;;10.49;100.00;94773.91;1028284;28;20023;-61
2021/04/29 01:09:54;;;;;;;7.85;4.63;;;;;;;10.47;100.00;94781.25;1028063;28;20543;-61
2021/04/29 01:10:33;;;;;;;7.70;4.70;;;;;;;10.47;100.00;94777.78;1033600;28;20050;-61
2021/04/29 01:11:12;;;;;;;7.03;4.72;;;;;;;10.46;100.00;94778.78;1032214;28;20474;-61
2021/04/29 01:11:44;;;;;;;10.55;5.72;;;;;;;10.43;100.00;94777.34;1036175;28;20014;-62
2021/04/29 01:12:26;;;;;;;8.52;4.82;;;;;;;10.41;100.00;94774.09;1036242;28;20018;-61
2021/04/29 01:13:06;;;;;;;7.55;4.18;;;;;;;10.40;100.00;94776.94;1032347;28;20525;-61
2021/04/29 01:13:37;;;;;;;6.65;4.63;;;;;;;10.37;100.00;94772.88;1035926;28;20018;-61
2021/04/29 01:14:10;;;;;;;6.78;4.20;;;;;;;10.37;100.00;94783.50;1028165;28;20098;-61
2021/04/29 01:14:41;;;;;;;7.47;4.22;;;;;;;10.38;100.00;94775.31;1036176;28;20152;-65
2021/04/29 01:15:13;;;;;;;5.72;4.38;;;;;;;10.40;100.00;94777.78;1032180;28;20023;-61
2021/04/29 01:15:44;;;;;;;6.38;4.65;;;;;;;10.40;100.00;94776.94;1028049;28;20023;-60
2021/04/29 01:16:16;;;;;;;6.55;4.80;;;;;;;10.38;100.00;94771.88;1040281;28;20013;-61
2021/04/29 01:16:47;;;;;;;6.72;4.53;;;;;;;10.36;100.00;94772.06;1032177;28;20125;-61
2021/04/29 01:17:18;;;;;;;7.95;4.97;;;;;;;10.35;100.00;94775.72;1036217;28;20061;-61
2021/04/29 01:17:49;;;;;;;9.07;4.95;;;;;;;10.34;100.00;94773.28;1036117;28;20040;-62
2021/04/29 01:18:22;;;;;;;7.03;4.60;;;;;;;10.34;100.00;94779.38;1032156;28;20118;-61
2021/04/29 01:18:53;;;;;;;6.70;4.85;;;;;;;10.34;100.00;94776.72;1040339;28;20542;-59
2021/04/29 01:19:32;;;;;;;7.53;4.75;;;;;;;10.33;100.00;94767.16;1040318;28;20538;-62
2021/04/29 01:20:05;;;;;;;8.13;5.20;;;;;;;10.31;100.00;94771.00;1033536;28;20469;-59
2021/04/29 01:20:47;;;;;;;6.57;4.53;;;;;;;10.29;100.00;94771.22;1032210;28;20018;-61
2021/04/29 01:21:18;;;;;;;8.10;4.80;;;;;;;10.27;100.00;94767.94;1038369;28;20080;-61
2021/04/29 01:21:49;;;;;;;8.63;5.28;;;;;;;10.26;100.00;94771.63;1036125;28;20025;-60
2021/04/29 01:22:20;;;;;;;10.05;4.95;;;;;;;10.27;100.00;94777.72;1028034;28;20019;-61
2021/04/29 01:22:54;;;;;;;8.32;4.75;;;;;;;10.27;100.00;94773.22;1040405;28;20025;-59
2021/04/29 01:23:40;;;;;;;7.45;4.85;;;;;;;10.26;100.00;94770.78;1040281;28;20128;-61
2021/04/29 01:24:21;;;;;;;8.40;5.22;;;;;;;10.17;100.00;94763.03;1036187;28;20049;-61
2021/04/29 01:25:12;;;;;;;7.07;4.10;;;;;;;10.22;100.00;94775.69;1040393;28;20021;-58
2021/04/29 01:25:43;;;;;;;11.20;4.85;;;;;;;10.21;100.00;94774.06;1032425;28;20097;-61
2021/04/29 01:26:31;;;;;;;6.53;4.82;;;;;;;10.22;100.00;94778.34;1031894;28;20022;-62
2021/04/29 01:27:02;;;;;;;9.13;4.60;;;;;;;10.22;100.00;94774.88;1040342;28;20029;-60
2021/04/29 01:27:33;;;;;;;7.10;3.92;;;;;;;10.23;100.00;94776.50;1032044;28;20077;-61
2021/04/29 01:28:04;;;;;;;7.03;4.25;;;;;;;10.22;100.00;94778.34;1032020;28;20471;-61
2021/04/29 01:28:35;;;;;;;6.25;4.32;;;;;;;10.23;100.00;94779.97;1040286;28;20074;-61
2021/04/29 01:29:10;;;;;;;5.68;4.13;;;;;;;10.24;100.00;94772.81;1032128;28;20030;-60
2021/04/29 01:29:41;;;;;;;7.03;4.70;;;;;;;10.26;100.00;94778.75;1032174;28;20484;-61
2021/04/29 01:30:12;;;;;;;6.28;4.13;;;;;;;10.22;100.00;94780.97;1032141;28;20180;-61
2021/04/29 01:30:43;;;;;;;6.28;4.40;;;;;;;10.23;100.00;94787.94;1032179;28;20022;-61
2021/04/29 01:31:14;;;;;;;7.25;4.35;;;;;;;10.23;100.00;94772.03;1028064;28;20034;-61
2021/04/29 01:31:45;;;;;;;7.30;4.20;;;;;;;10.23;100.00;94769.38;1028019;28;20031;-61
2021/04/29 01:32:16;;;;;;;8.70;4.32;;;;;;;10.26;100.00;94776.94;1032038;28;20027;-62
2021/04/29 01:32:47;;;;;;;7.88;4.30;;;;;;;10.27;100.00;94777.72;1032108;28;20061;-61
2021/04/29 01:33:18;;;;;;;9.65;4.00;;;;;;;10.28;100.00;94774.88;1036124;28;20021;-61
2021/04/29 01:33:49;;;;;;;5.85;4.05;;;;;;;10.27;100.00;94778.53;1031887;28;20037;-61
2021/04/29 01:34:21;;;;;;;5.85;4.00;;;;;;;10.25;100.00;94775.28;1032150;28;20034;-61
2021/04/29 01:34:52;;;;;;;5.18;3.72;;;;;;;10.27;100.00;94778.53;1032241;28;20384;-60
2021/04/29 01:35:23;;;;;;;5.90;3.88;;;;;;;10.28;100.00;94772.22;1024241;28;20026;-61
2021/04/29 01:35:53;;;;;;;7.18;3.90;;;;;;;10.28;100.00;94766.91;1040293;28;20487;-61
2021/04/29 01:36:25;;;;;;;7.95;4.55;;;;;;;10.29;100.00;94768.56;1036165;28;20018;-61
2021/04/29 01:36:56;;;;;;;5.57;3.75;;;;;;;10.32;100.00;94770.00;1028114;28;20050;-62
2021/04/29 01:37:26;;;;;;;6.75;4.25;;;;;;;10.31;100.00;94769.19;1028108;28;20026;-62
2021/04/29 01:37:57;;;;;;;6.90;4.45;;;;;;;10.32;100.00;94770.00;1028139;28;20512;-61
2021/04/29 01:38:28;;;;;;;7.88;4.22;;;;;;;10.33;100.00;94769.81;1036083;28;20044;-61
2021/04/29 01:38:59;;;;;;;6.78;4.20;;;;;;;10.33;100.00;94774.31;1028157;28;20484;-63
2021/04/29 01:39:30;;;;;;;6.38;3.92;;;;;;;10.33;100.00;94772.47;1023955;29;20015;-59
2021/04/29 01:40:01;;;;;;;6.32;4.28;;;;;;;10.33;100.00;94774.31;1040219;28;20025;-61
2021/04/29 01:40:32;;;;;;;6.28;4.30;;;;;;;10.34;100.00;94778.59;1032132;28;20045;-61
2021/04/29 01:41:03;;;;;;;6.10;4.38;;;;;;;10.36;100.00;94771.22;1028064;28;20525;-61
2021/04/29 01:41:35;;;;;;;5.78;4.00;;;;;;;10.37;100.00;94779.00;1032100;28;20078;-61
2021/04/29 01:42:08;;;;;;;8.65;3.83;;;;;;;10.39;100.00;94776.13;1028166;28;20050;-61
2021/04/29 01:42:39;;;;;;;5.63;3.60;;;;;;;10.40;100.00;94779.59;1031972;28;20100;-61
2021/04/29 01:43:10;;;;;;;4.55;3.55;;;;;;;10.41;100.00;94783.91;1040222;28;20063;-59
2021/04/29 01:43:41;;;;;;;5.65;4.07;;;;;;;10.38;100.00;94775.31;1031867;28;20026;-61
2021/04/29 01:44:12;;;;;;;5.72;3.67;;;;;;;10.42;100.00;94781.03;1028091;28;20023;-62
2021/04/29 01:44:43;;;;;;;5.28;4.00;;;;;;;10.37;100.00;94775.53;1028086;28;20065;-61
2021/04/29 01:45:14;;;;;;;5.68;4.00;;;;;;;10.40;100.00;94779.59;1035999;28;20088;-61
2021/04/29 01:45:45;;;;;;;6.20;3.80;;;;;;;10.42;100.00;94780.22;1036144;28;20111;-61
2021/04/29 01:46:15;;;;;;;6.15;4.25;;;;;;;10.41;100.00;94776.75;1031981;28;20038;-61
2021/04/29 01:46:47;;;;;;;5.38;3.75;;;;;;;10.40;100.00;94771.63;1032134;28;20540;-62
2021/04/29 01:47:17;;;;;;;6.15;4.00;;;;;;;10.42;100.00;94781.03;1040196;28;20014;-60
2021/04/29 01:47:48;;;;;;;6.15;4.30;;;;;;;10.47;100.00;94778.59;1036118;28;20072;-61
2021/04/29 01:48:19;;;;;;;9.40;4.28;;;;;;;10.46;100.00;94776.13;1036066;28;20018;-62
2021/04/29 01:48:50;;;;;;;7.57;4.00;;;;;;;10.46;100.00;94776.94;1032070;28;20586;-60
2021/04/29 01:49:21;;;;;;;6.63;4.05;;;;;;;10.43;100.00;94776.53;1027995;28;20111;-61
2021/04/29 01:49:52;;;;;;;5.45;3.88;;;;;;;10.45;100.00;94779.81;1032035;28;20026;-60
2021/04/29 01:50:23;;;;;;;5.97;4.00;;;;;;;10.46;100.00;94778.78;1028068;28;20022;-61
2021/04/29 01:50:54;;;;;;;5.05;3.83;;;;;;;10.46;100.00;94781.44;1032050;28;20037;-61
2021/04/29 01:51:25;;;;;;;4.90;3.58;;;;;;;10.43;100.00;94774.69;1036124;28;20249;-61
2021/04/29 01:51:56;;;;;;;5.18;3.70;;;;;;;10.42;100.00;94777.59;1031960;28;20010;-61
2021/04/29 01:52:27;;;;;;;6.25;4.10;;;;;;;10.42;100.00;94781.03;1036128;28;20009;-61
2021/04/29 01:52:58;;;;;;;5.18;4.00;;;;;;;10.43;100.00;94776.53;1032055;28;20015;-61
2021/04/29 01:53:28;;;;;;;5.93;4.28;;;;;;;10.45;100.00;94777.16;1031896;28;20014;-62
2021/04/29 01:54:00;;;;;;;5.05;4.03;;;;;;;10.45;100.00;94774.50;1031890;28;20476;-61
2021/04/29 01:54:31;;;;;;;6.30;4.05;;;;;;;10.38;100.00;94766.56;1032092;28;20022;-61
2021/04/29 01:55:02;;;;;;;6.53;4.35;;;;;;;10.43;100.00;94777.34;1036126;28;20014;-62
2021/04/29 01:55:33;;;;;;;5.80;4.22;;;;;;;10.45;100.00;94778.00;1031966;28;20025;-61
2021/04/29 01:56:04;;;;;;;6.90;4.20;;;;;;;10.43;100.00;94781.84;1032073;28;20631;-62
2021/04/29 01:56:35;;;;;;;9.30;4.72;;;;;;;10.43;100.00;94779.19;1032040;28;20014;-60
2021/04/29 01:57:07;;;;;;;5.13;3.88;;;;;;;10.43;100.00;94782.66;1032092;28;20023;-62
2021/04/29 01:57:38;;;;;;;5.22;3.83;;;;;;;10.43;100.00;94782.66;1027912;28;20018;-61
2021/04/29 01:58:09;;;;;;;6.85;4.20;;;;;;;10.47;100.00;94788.41;1036088;28;20022;-62
2021/04/29 01:58:40;;;;;;;6.05;4.22;;;;;;;10.47;100.00;94777.78;1031914;28;20025;-61
2021/04/29 01:59:11;;;;;;;6.47;4.05;;;;;;;10.46;100.00;94776.94;1032087;28;20086;-61
2021/04/29 01:59:42;;;;;;;5.88;4.35;;;;;;;10.48;100.00;94776.75;1031791;28;20030;-60
2021/04/29 02:00:13;;;;;;;6.18;4.10;;;;;;;10.46;100.00;94784.09;1036081;28;20026;-61
2021/04/29 02:00:45;;;;;;;6.43;4.00;;;;;;;10.46;100.00;94779.59;1032014;28;20448;-61
2021/04/29 02:01:16;;;;;;;4.78;3.65;;;;;;;10.47;100.00;94777.78;1027976;28;20545;-59
2021/04/29 02:01:48;;;;;;;8.13;4.60;;;;;;;10.48;100.00;94780.22;1031957;28;20033;-60
2021/04/29 02:02:19;;;;;;;8.10;4.50;;;;;;;10.48;100.00;94784.72;1027931;28;20129;-61
2021/04/29 02:02:50;;;;;;;4.88;3.83;;;;;;;10.43;100.00;94784.50;1028033;28;20113;-60
2021/04/29 02:03:21;;;;;;;6.78;4.00;;;;;;;10.46;100.00;94779.59;1036116;28;20029;-61
2021/04/29 02:03:53;;;;;;;7.88;4.00;;;;;;;10.40;100.00;94784.91;1031756;28;20030;-61
2021/04/29 02:04:24;;;;;;;7.22;4.15;;;;;;;10.42;100.00;94780.22;1031714;28;20022;-61
2021/04/29 02:04:55;;;;;;;6.75;3.88;;;;;;;10.42;100.00;94786.34;1036229;28;20079;-61
2021/04/29 02:05:26;;;;;;;5.32;3.75;;;;;;;10.45;100.00;94785.13;1027984;28;20033;-61
2021/04/29 02:05:56;;;;;;;6.57;3.85;;;;;;;10.45;100.00;94783.28;1031931;28;20467;-61
2021/04/29 02:06:27;;;;;;;6.15;4.00;;;;;;;10.44;100.00;94789.63;1040051;28;20056;-61
2021/04/29 02:06:59;;;;;;;5.60;4.25;;;;;;;10.43;100.00;94787.16;1032047;28;20121;-61
2021/04/29 02:07:30;;;;;;;5.40;3.55;;;;;;;10.42;100.00;94790.84;1035926;28;20032;-60
2021/04/29 02:08:01;;;;;;;5.03;3.80;;;;;;;10.43;100.00;94781.84;1027819;28;20413;-61
2021/04/29 02:08:32;;;;;;;7.18;4.30;;;;;;;10.43;100.00;94787.16;1036025;28;20109;-62
2021/04/29 02:09:04;;;;;;;6.88;4.13;;;;;;;10.39;100.00;94781.44;1031981;28;20022;-62
2021/04/29 02:09:35;;;;;;;4.95;3.70;;;;;;;10.41;100.00;94779.41;1031882;28;20027;-62
2021/04/29 02:10:06;;;;;;;6.35;3.60;;;;;;;10.41;100.00;94787.34;1031987;28;20022;-60
2021/04/29 02:10:38;;;;;;;6.28;3.72;;;;;;;10.41;100.00;94783.91;1032093;28;20477;-62
2021/04/29 02:11:09;;;;;;;4.97;3.53;;;;;;;10.41;100.00;94787.34;1028000;28;20025;-61
2021/04/29 02:11:53;;;;;;;6.32;3.70;;;;;;;10.40;100.00;94788.41;1035930;28;20018;-61
2021/04/29 02:12:24;;;;;;;6.00;4.05;;;;;;;10.41;100.00;94786.56;1031967;28;20026;-61
2021/04/29 02:12:55;;;;;;;5.38;3.60;;;;;;;10.37;100.00;94786.94;1036048;28;20026;-61
2021/04/29 02:13:27;;;;;;;6.32;3.97;;;;;;;10.35;100.00;94786.34;1027887;28;20374;-62
2021/04/29 02:13:58;;;;;;;5.28;3.65;;;;;;;10.37;100.00;94786.13;1035819;28;20069;-61
2021/04/29 02:14:34;;;;;;;5.68;3.85;;;;;;;10.37;100.00;94786.94;1027964;28;20030;-61
2021/04/29 02:15:05;;;;;;;6.68;4.28;;;;;;;10.40;100.00;94787.56;1036039;28;20467;-61
2021/04/29 02:15:39;;;;;;;5.72;3.45;;;;;;;10.41;100.00;94782.06;1035926;28;20433;-62
2021/04/29 02:16:14;;;;;;;6.70;3.45;;;;;;;10.42;100.00;94786.34;1031883;28;20477;-61
2021/04/29 02:16:47;;;;;;;5.63;3.28;;;;;;;10.45;100.00;94791.25;1032018;28;20030;-61
2021/04/29 02:17:23;;;;;;;5.28;3.28;;;;;;;10.45;100.00;94790.41;1040180;28;20024;-61
2021/04/29 02:18:05;;;;;;;5.13;3.08;;;;;;;10.41;100.00;94789.22;1036181;28;20431;-61
2021/04/29 02:18:36;;;;;;;5.53;3.38;;;;;;;10.42;100.00;94790.84;1036117;28;20487;-62
2021/04/29 02:19:07;;;;;;;4.72;3.20;;;;;;;10.42;100.00;94782.88;1031946;28;20028;-61
2021/04/29 02:19:40;;;;;;;4.63;3.03;;;;;;;10.45;100.00;94787.75;1031795;28;20048;-61
2021/04/29 02:20:12;;;;;;;4.45;2.88;;;;;;;10.46;100.00;94786.75;1034207;28;20022;-61
2021/04/29 02:20:43;;;;;;;5.57;3.08;;;;;;;10.46;100.00;94790.22;1031858;28;20076;-60
2021/04/29 02:21:18;;;;;;;4.72;3.03;;;;;;;10.49;100.00;94791.66;1031958;28;20022;-61
2021/04/29 02:21:48;;;;;;;4.80;3.20;;;;;;;10.48;100.00;94787.38;1027908;28;20121;-61
2021/04/29 02:22:19;;;;;;;4.75;3.20;;;;;;;10.38;100.00;94787.78;1040049;28;20021;-61
2021/04/29 02:22:50;;;;;;;4.50;3.03;;;;;;;10.44;100.00;94789.63;1027957;28;20023;-59
2021/04/29 02:23:23;;;;;;;5.13;2.80;;;;;;;10.48;100.00;94788.19;1040148;28;20023;-61
2021/04/29 02:23:54;;;;;;;3.85;2.58;;;;;;;10.46;100.00;94795.53;1027803;28;20023;-60
2021/04/29 02:24:24;;;;;;;4.38;2.90;;;;;;;10.49;100.00;94794.31;1035893;28;20120;-61
2021/04/29 02:24:56;;;;;;;3.83;2.72;;;;;;;10.40;100.00;94776.94;1027944;28;20027;-61
2021/04/29 02:25:28;;;;;;;3.60;2.65;;;;;;;10.49;100.00;94794.31;1031933;28;20029;-61
2021/04/29 02:26:00;;;;;;;4.10;2.63;;;;;;;10.47;100.00;94794.53;1031986;28;20018;-61
2021/04/29 02:26:32;;;;;;;4.95;2.78;;;;;;;10.43;100.00;94785.31;1035767;28;20026;-60
2021/04/29 02:27:03;;;;;;;5.55;2.90;;;;;;;10.51;100.00;94800.25;1032000;28;20097;-61
2021/04/29 02:27:34;;;;;;;4.43;2.97;;;;;;;10.49;100.00;94795.13;1031905;28;20066;-61
2021/04/29 02:28:05;;;;;;;3.40;2.35;;;;;;;10.48;100.00;94785.50;1031971;28;20034;-60
2021/04/29 02:28:36;;;;;;;4.95;2.72;;;;;;;10.49;100.00;94787.16;1027867;28;20054;-60